createdAt,value
2023-05-09T00:01:47.434Z,5.40
2023-05-09T00:04:16.750Z,5.40
2023-05-09T00:06:46.092Z,5.40
2023-05-09T00:09:15.311Z,5.40
2023-05-09T00:11:44.526Z,5.40
2023-05-09T00:14:14.008Z,5.40
2023-05-09T00:16:43.104Z,5.30
2023-05-09T00:19:13.182Z,5.30
2023-05-09T00:21:42.282Z,5.20
2023-05-09T00:24:11.375Z,5.20
2023-05-09T00:26:40.573Z,5.20
2023-05-09T00:29:09.653Z,5.10
2023-05-09T00:31:38.727Z,5.10
2023-05-09T00:34:07.864Z,5.00
2023-05-09T00:36:37.185Z,5.00
2023-05-09T00:39:06.307Z,5.00
2023-05-09T00:41:35.835Z,5.00
2023-05-09T00:44:05.073Z,4.90
2023-05-09T00:46:34.222Z,4.90
2023-05-09T00:49:03.765Z,4.90
2023-05-09T00:51:33.254Z,4.90
2023-05-09T00:54:02.697Z,4.90
2023-05-09T00:56:31.889Z,4.90
2023-05-09T00:59:01.172Z,4.90
2023-05-09T01:01:30.878Z,4.80
2023-05-09T01:04:00.202Z,4.80
2023-05-09T01:06:38.068Z,4.80
2023-05-09T01:09:26.822Z,4.80
2023-05-09T01:12:08.060Z,4.70
2023-05-09T01:14:59.935Z,4.70
2023-05-09T01:17:40.294Z,4.70
2023-05-09T01:20:24.582Z,4.60
2023-05-09T01:23:15.995Z,4.50
2023-05-09T01:26:04.500Z,4.40
2023-05-09T01:29:10.660Z,4.40
2023-05-09T01:31:42.166Z,4.30
2023-05-09T01:34:15.042Z,4.30
2023-05-09T01:36:44.425Z,4.40
2023-05-09T01:39:14.026Z,4.30
2023-05-09T01:41:43.154Z,4.30
2023-05-09T01:44:15.095Z,4.20
2023-05-09T01:46:44.989Z,4.20
2023-05-09T01:49:14.520Z,4.20
2023-05-09T01:51:45.236Z,4.10
2023-05-09T01:54:16.897Z,4.10
2023-05-09T01:56:47.139Z,4.00
2023-05-09T01:59:18.508Z,4.00
2023-05-09T02:01:48.919Z,4.00
2023-05-09T02:04:18.925Z,3.90
2023-05-09T02:06:51.455Z,3.90
2023-05-09T02:09:21.138Z,3.90
2023-05-09T02:11:50.457Z,3.90
2023-05-09T02:14:19.574Z,3.80
2023-05-09T02:16:48.648Z,3.80
2023-05-09T02:19:17.695Z,3.80
2023-05-09T02:21:46.854Z,3.80
2023-05-09T02:24:16.086Z,3.80
2023-05-09T02:26:45.621Z,3.70
2023-05-09T02:29:18.620Z,3.70
2023-05-09T02:31:50.144Z,3.70
2023-05-09T02:34:20.178Z,3.70
2023-05-09T02:36:49.550Z,3.70
2023-05-09T02:39:18.652Z,3.70
2023-05-09T02:41:50.662Z,3.70
2023-05-09T02:44:21.040Z,3.70
2023-05-09T02:46:50.472Z,3.70
2023-05-09T02:49:31.475Z,3.60
2023-05-09T02:52:02.356Z,3.60
2023-05-09T02:54:31.480Z,3.60
2023-05-09T02:57:00.646Z,3.60
2023-05-09T02:59:30.862Z,3.70
2023-05-09T03:02:03.593Z,3.70
2023-05-09T03:04:33.739Z,3.70
2023-05-09T03:07:03.634Z,3.70
2023-05-09T03:09:35.543Z,3.60
2023-05-09T03:12:05.003Z,3.60
2023-05-09T03:14:34.188Z,3.50
2023-05-09T03:17:04.479Z,3.50
2023-05-09T03:19:37.209Z,3.50
2023-05-09T03:22:07.323Z,3.60
2023-05-09T03:24:41.372Z,3.50
2023-05-09T03:27:10.461Z,3.50
2023-05-09T03:29:39.518Z,3.50
2023-05-09T03:32:08.570Z,3.40
2023-05-09T03:34:37.799Z,3.40
2023-05-09T03:37:07.450Z,3.50
2023-05-09T03:39:40.770Z,3.60
2023-05-09T03:42:09.983Z,3.70
2023-05-09T03:44:39.107Z,3.80
2023-05-09T03:47:08.174Z,3.80
2023-05-09T03:49:41.615Z,3.90
2023-05-09T03:52:12.354Z,3.90
2023-05-09T03:54:41.512Z,3.90
2023-05-09T03:57:10.675Z,4.00
2023-05-09T03:59:40.673Z,4.00
2023-05-09T04:02:11.136Z,4.10
2023-05-09T04:04:40.514Z,4.20
2023-05-09T04:07:10.732Z,4.30
2023-05-09T04:09:42.341Z,4.40
2023-05-09T04:12:11.498Z,4.50
2023-05-09T04:14:40.665Z,4.70
2023-05-09T04:17:10.228Z,4.80
2023-05-09T04:19:39.325Z,4.90
2023-05-09T04:22:08.326Z,5.00
2023-05-09T04:24:37.369Z,5.10
2023-05-09T04:27:06.500Z,5.20
2023-05-09T04:32:35.870Z,5.40
2023-05-09T04:35:06.590Z,5.60
2023-05-09T04:37:41.825Z,5.70
2023-05-09T04:40:11.852Z,5.90
2023-05-09T04:42:46.931Z,6.00
2023-05-09T04:45:16.430Z,6.10
2023-05-09T04:47:45.869Z,6.20
2023-05-09T04:50:16.609Z,6.30
2023-05-09T04:52:45.784Z,6.40
2023-05-09T04:55:15.297Z,6.60
2023-05-09T04:57:49.108Z,6.70
2023-05-09T05:00:19.410Z,6.80
2023-05-09T05:02:50.096Z,7.00
2023-05-09T05:05:25.021Z,7.10
2023-05-09T05:07:55.570Z,7.20
2023-05-09T05:10:30.415Z,7.40
2023-05-09T05:13:07.955Z,7.50
2023-05-09T05:15:41.248Z,7.60
2023-05-09T05:18:11.488Z,7.70
2023-05-09T05:20:42.098Z,7.90
2023-05-09T05:23:11.204Z,8.00
2023-05-09T05:25:40.548Z,8.10
2023-05-09T05:28:09.786Z,8.20
2023-05-09T05:30:43.182Z,8.40
2023-05-09T05:33:12.287Z,8.40
2023-05-09T05:35:41.433Z,8.50
2023-05-09T05:38:10.656Z,8.60
2023-05-09T05:40:40.273Z,8.70
2023-05-09T05:43:10.279Z,8.90
2023-05-09T05:45:41.076Z,9.00
2023-05-09T05:48:13.155Z,9.10
2023-05-09T05:50:42.259Z,9.30
2023-05-09T05:53:12.439Z,9.30
2023-05-09T05:55:41.766Z,9.50
2023-05-09T05:58:10.892Z,9.50
2023-05-09T06:00:40.262Z,9.60
2023-05-09T06:03:14.225Z,9.80
2023-05-09T06:05:49.136Z,9.90
2023-05-09T06:08:18.731Z,10.10
2023-05-09T06:10:47.809Z,10.20
2023-05-09T06:13:17.001Z,10.30
2023-05-09T06:15:50.916Z,10.40
2023-05-09T06:18:20.111Z,10.50
2023-05-09T06:20:49.295Z,10.60
2023-05-09T06:23:22.176Z,10.80
2023-05-09T06:25:51.270Z,10.90
2023-05-09T06:28:20.368Z,10.90
2023-05-09T06:30:49.526Z,11.00
2023-05-09T06:33:18.585Z,11.00
2023-05-09T06:35:48.548Z,11.10
2023-05-09T06:38:17.579Z,11.30
2023-05-09T06:40:46.727Z,11.40
2023-05-09T06:43:15.868Z,11.50
2023-05-09T06:45:45.012Z,11.70
2023-05-09T06:48:14.081Z,11.80
2023-05-09T06:50:43.130Z,11.90
2023-05-09T06:53:12.276Z,12.10
2023-05-09T06:55:41.938Z,12.30
2023-05-09T06:58:12.087Z,12.40
2023-05-09T07:00:41.288Z,12.50
2023-05-09T07:03:10.813Z,12.60
2023-05-09T07:05:39.885Z,12.70
2023-05-09T07:08:09.077Z,12.90
2023-05-09T07:10:38.869Z,12.90
2023-05-09T07:13:07.921Z,13.00
2023-05-09T07:15:41.118Z,13.10
2023-05-09T07:18:11.954Z,13.20
2023-05-09T07:20:41.296Z,13.40
2023-05-09T07:23:10.386Z,13.50
2023-05-09T07:25:39.431Z,13.70
2023-05-09T07:28:08.562Z,13.80
2023-05-09T07:30:37.645Z,13.90
2023-05-09T07:33:07.693Z,14.00
2023-05-09T07:35:36.902Z,14.00
2023-05-09T07:38:06.506Z,14.10
2023-05-09T07:40:37.212Z,14.20
2023-05-09T07:43:06.333Z,14.30
2023-05-09T07:45:35.463Z,14.40
2023-05-09T07:48:05.056Z,14.50
2023-05-09T07:50:34.152Z,14.60
2023-05-09T07:53:03.258Z,14.70
2023-05-09T07:55:32.323Z,14.70
2023-05-09T07:58:01.402Z,14.80
2023-05-09T08:00:30.471Z,14.90
2023-05-09T08:02:59.894Z,14.90
2023-05-09T08:05:29.199Z,14.90
2023-05-09T08:07:58.307Z,15.00
2023-05-09T08:10:30.666Z,15.10
2023-05-09T08:12:59.866Z,15.20
2023-05-09T08:15:28.998Z,15.30
2023-05-09T08:17:58.263Z,15.50
2023-05-09T08:20:27.409Z,15.70
2023-05-09T08:22:56.457Z,15.90
2023-05-09T08:25:25.488Z,16.00
2023-05-09T08:27:54.528Z,16.00
2023-05-09T08:30:23.554Z,16.10
2023-05-09T08:32:52.680Z,16.00
2023-05-09T08:35:21.888Z,16.10
2023-05-09T08:37:51.728Z,16.10
2023-05-09T08:40:21.120Z,16.20
2023-05-09T08:42:50.875Z,16.40
2023-05-09T08:45:25.978Z,16.40
2023-05-09T08:47:55.819Z,16.30
2023-05-09T08:50:25.284Z,16.20
2023-05-09T08:52:54.523Z,16.50
2023-05-09T08:55:25.395Z,16.50
2023-05-09T08:57:54.716Z,16.70
2023-05-09T09:00:25.448Z,17.00
2023-05-09T09:02:57.108Z,17.40
2023-05-09T09:05:40.802Z,17.80
2023-05-09T09:08:11.940Z,18.10
2023-05-09T09:10:47.083Z,18.00
2023-05-09T09:13:18.065Z,17.70
2023-05-09T09:15:48.982Z,18.00
2023-05-09T09:18:23.770Z,18.20
2023-05-09T09:21:00.139Z,18.50
2023-05-09T09:23:30.463Z,18.80
2023-05-09T09:26:01.833Z,19.00
2023-05-09T09:28:31.073Z,19.10
2023-05-09T09:31:00.483Z,19.20
2023-05-09T09:33:29.664Z,19.00
2023-05-09T09:35:59.818Z,19.00
2023-05-09T09:38:30.953Z,19.30
2023-05-09T09:41:00.146Z,19.60
2023-05-09T09:43:30.962Z,19.90
2023-05-09T09:46:04.466Z,20.10
2023-05-09T09:48:35.671Z,19.90
2023-05-09T09:51:10.746Z,19.50
2023-05-09T09:53:43.563Z,19.70
2023-05-09T09:56:13.047Z,20.00
2023-05-09T09:58:42.104Z,20.40
2023-05-09T10:01:14.172Z,20.50
2023-05-09T10:03:48.175Z,20.60
2023-05-09T10:06:17.490Z,20.70
2023-05-09T10:08:47.378Z,20.60
2023-05-09T10:11:16.616Z,20.50
2023-05-09T10:13:46.448Z,20.50
2023-05-09T10:16:16.050Z,20.80
2023-05-09T10:18:45.592Z,20.90
2023-05-09T10:21:15.910Z,21.10
2023-05-09T10:23:47.952Z,21.30
2023-05-09T10:26:27.127Z,21.10
2023-05-09T10:28:57.914Z,20.70
2023-05-09T10:31:28.932Z,20.50
2023-05-09T10:34:02.078Z,20.40
2023-05-09T10:36:31.453Z,20.60
2023-05-09T10:39:01.422Z,21.00
2023-05-09T10:41:31.424Z,21.00
2023-05-09T10:44:00.678Z,20.70
2023-05-09T10:46:29.954Z,20.60
2023-05-09T10:48:59.325Z,20.60
2023-05-09T10:51:29.089Z,20.80
2023-05-09T10:53:58.179Z,20.90
2023-05-09T10:56:32.371Z,21.20
2023-05-09T10:59:02.179Z,21.50
2023-05-09T11:01:39.634Z,21.90
2023-05-09T11:04:14.572Z,22.00
2023-05-09T11:06:51.235Z,22.20
2023-05-09T11:09:35.553Z,22.60
2023-05-09T11:12:04.589Z,22.40
2023-05-09T11:14:45.890Z,22.10
2023-05-09T11:17:28.386Z,21.90
2023-05-09T11:20:03.800Z,21.90
2023-05-09T11:22:42.724Z,22.10
2023-05-09T11:25:13.922Z,22.30
2023-05-09T11:27:43.507Z,22.60
2023-05-09T11:30:17.822Z,22.90
2023-05-09T11:32:51.859Z,23.00
2023-05-09T11:35:22.854Z,22.60
2023-05-09T11:37:55.167Z,22.30
2023-05-09T11:40:24.471Z,22.30
2023-05-09T11:42:57.795Z,22.40
2023-05-09T11:45:32.605Z,22.40
2023-05-09T11:48:02.199Z,22.30
2023-05-09T11:50:31.423Z,22.20
2023-05-09T11:53:00.504Z,22.50
2023-05-09T11:55:32.783Z,22.80
2023-05-09T11:58:01.956Z,23.10
2023-05-09T12:00:31.902Z,23.20
2023-05-09T12:03:01.142Z,23.00
2023-05-09T12:05:30.656Z,22.60
2023-05-09T12:08:04.658Z,22.30
2023-05-09T12:10:37.668Z,22.10
2023-05-09T12:13:06.830Z,21.90
2023-05-09T12:15:38.149Z,21.60
2023-05-09T12:18:08.687Z,21.40
2023-05-09T12:20:44.715Z,21.50
2023-05-09T12:23:15.019Z,21.50
2023-05-09T12:25:55.694Z,21.30
2023-05-09T12:28:26.406Z,21.20
2023-05-09T12:30:56.383Z,21.30
2023-05-09T12:33:26.554Z,21.30
2023-05-09T12:36:03.569Z,21.40
2023-05-09T12:38:33.141Z,21.80
2023-05-09T12:41:13.018Z,21.60
2023-05-09T12:43:52.543Z,21.40
2023-05-09T12:46:22.081Z,21.20
2023-05-09T12:48:51.798Z,21.00
2023-05-09T12:51:22.007Z,20.80
2023-05-09T12:53:51.200Z,20.80
2023-05-09T12:56:22.965Z,20.90
2023-05-09T12:58:53.832Z,21.90
2023-05-09T13:01:31.863Z,21.90
2023-05-09T13:04:05.938Z,21.50
2023-05-09T13:06:36.342Z,21.50
2023-05-09T13:09:09.473Z,27.80
2023-05-09T13:11:38.513Z,27.70
2023-05-09T13:14:08.452Z,28.10
2023-05-09T13:16:37.730Z,26.30
2023-05-09T13:19:07.294Z,25.00
2023-05-09T13:21:37.030Z,23.70
2023-05-09T13:24:06.492Z,24.20
2023-05-09T13:26:35.565Z,31.30
2023-05-09T13:29:04.650Z,35.70
2023-05-09T13:31:33.790Z,35.70
2023-05-09T13:34:02.921Z,36.20
2023-05-09T13:36:32.600Z,33.80
2023-05-09T13:39:01.640Z,31.90
2023-05-09T13:41:32.183Z,30.90
2023-05-09T13:44:01.298Z,30.60
2023-05-09T13:46:30.484Z,31.30
2023-05-09T13:48:59.533Z,29.30
2023-05-09T13:51:29.176Z,28.10
2023-05-09T13:53:58.236Z,26.50
2023-05-09T13:56:27.421Z,25.10
2023-05-09T13:58:56.489Z,24.20
2023-05-09T14:01:25.620Z,23.50
2023-05-09T14:03:54.789Z,22.90
2023-05-09T14:06:23.954Z,22.50
2023-05-09T14:08:53.144Z,22.30
2023-05-09T14:11:22.561Z,22.20
2023-05-09T14:13:54.505Z,22.50
2023-05-09T14:16:23.559Z,23.30
2023-05-09T14:18:52.652Z,25.10
2023-05-09T14:21:22.360Z,24.70
2023-05-09T14:23:51.610Z,24.60
2023-05-09T14:26:20.762Z,24.40
2023-05-09T14:28:49.839Z,24.30
2023-05-09T14:31:19.291Z,24.70
2023-05-09T14:33:48.372Z,25.00
2023-05-09T14:36:17.579Z,24.90
2023-05-09T14:38:47.004Z,24.50
2023-05-09T14:41:16.389Z,24.40
2023-05-09T14:43:45.759Z,24.00
2023-05-09T14:46:15.110Z,23.80
2023-05-09T14:48:44.297Z,23.70
2023-05-09T14:51:14.350Z,23.80
2023-05-09T14:53:43.676Z,23.80
2023-05-09T14:56:13.245Z,23.80
2023-05-09T14:58:42.265Z,23.60
2023-05-09T15:01:11.419Z,23.30
2023-05-09T15:03:40.964Z,22.70
2023-05-09T15:06:10.057Z,22.20
2023-05-09T15:08:39.324Z,22.00
2023-05-09T15:11:08.352Z,21.90
2023-05-09T15:13:37.522Z,21.90
2023-05-09T15:16:06.767Z,21.90
2023-05-09T15:18:36.237Z,21.70
2023-05-09T15:21:05.557Z,21.50
2023-05-09T15:23:34.681Z,21.80
2023-05-09T15:26:03.967Z,22.10
2023-05-09T15:28:33.886Z,21.90
2023-05-09T15:31:03.553Z,21.40
2023-05-09T15:33:32.967Z,20.80
2023-05-09T15:36:02.137Z,20.50
2023-05-09T15:38:31.266Z,20.30
2023-05-09T15:41:00.362Z,20.50
2023-05-09T15:43:29.444Z,20.90
2023-05-09T15:45:58.560Z,21.20
2023-05-09T15:48:27.852Z,22.30
2023-05-09T15:50:56.901Z,22.20
2023-05-09T15:53:27.629Z,21.70
2023-05-09T15:55:57.118Z,21.00
2023-05-09T15:58:26.211Z,20.50
2023-05-09T16:00:56.914Z,20.20
2023-05-09T16:03:26.458Z,20.10
2023-05-09T16:05:55.731Z,21.80
2023-05-09T16:08:24.869Z,23.20
2023-05-09T16:10:54.129Z,22.10
2023-05-09T16:13:23.858Z,21.10
2023-05-09T16:15:53.952Z,20.40
2023-05-09T16:18:23.164Z,19.90
2023-05-09T16:20:52.295Z,19.40
2023-05-09T16:23:21.662Z,19.00
2023-05-09T16:25:51.089Z,18.80
2023-05-09T16:28:23.521Z,18.90
2023-05-09T16:30:52.978Z,18.90
2023-05-09T16:33:22.037Z,18.50
2023-05-09T16:35:51.427Z,18.10
2023-05-09T16:38:20.658Z,17.80
2023-05-09T16:40:51.050Z,17.60
2023-05-09T16:43:20.253Z,17.40
2023-05-09T16:45:49.396Z,17.30
2023-05-09T16:48:18.906Z,17.20
2023-05-09T16:50:48.294Z,17.20
2023-05-09T16:53:18.953Z,17.10
2023-05-09T16:55:48.087Z,17.10
2023-05-09T16:58:17.163Z,17.00
2023-05-09T17:00:46.277Z,16.80
2023-05-09T17:03:15.436Z,16.70
2023-05-09T17:05:44.496Z,16.40
2023-05-09T17:08:13.623Z,16.30
2023-05-09T17:10:42.661Z,16.10
2023-05-09T17:13:11.904Z,15.90
2023-05-09T17:15:41.174Z,15.90
2023-05-09T17:18:10.401Z,15.80
2023-05-09T17:20:39.628Z,15.70
2023-05-09T17:23:08.752Z,15.60
2023-05-09T17:25:37.879Z,15.40
2023-05-09T17:28:07.782Z,15.30
2023-05-09T17:30:36.986Z,15.20
2023-05-09T17:33:06.089Z,15.00
2023-05-09T17:35:36.281Z,14.90
2023-05-09T17:38:05.363Z,14.70
2023-05-09T17:40:34.409Z,14.60
2023-05-09T17:43:03.526Z,14.60
2023-05-09T17:45:32.531Z,14.40
2023-05-09T17:48:02.450Z,14.30
2023-05-09T17:50:31.661Z,14.20
2023-05-09T17:53:00.747Z,14.00
2023-05-09T17:55:30.375Z,14.00
2023-05-09T17:57:59.441Z,13.80
2023-05-09T18:00:29.311Z,13.70
2023-05-09T18:03:00.719Z,13.60
2023-05-09T18:05:30.129Z,13.50
2023-05-09T18:08:01.243Z,13.40
2023-05-09T18:10:30.661Z,13.30
2023-05-09T18:12:59.770Z,13.10
2023-05-09T18:15:28.889Z,13.00
2023-05-09T18:17:59.385Z,12.90
2023-05-09T18:20:28.855Z,12.80
2023-05-09T18:22:57.955Z,12.70
2023-05-09T18:25:27.161Z,12.60
2023-05-09T18:27:56.702Z,12.60
2023-05-09T18:30:25.970Z,12.50
2023-05-09T18:33:00.454Z,12.50
2023-05-09T18:35:30.223Z,12.40
2023-05-09T18:37:59.847Z,12.30
2023-05-09T18:40:29.018Z,12.20
2023-05-09T18:42:58.144Z,12.20
2023-05-09T18:45:27.209Z,12.00
2023-05-09T18:47:56.582Z,11.90
2023-05-09T18:50:26.008Z,11.80
2023-05-09T18:52:55.391Z,11.70
2023-05-09T18:55:24.889Z,11.60
2023-05-09T18:57:54.417Z,11.50
2023-05-09T19:00:23.884Z,11.50
2023-05-09T19:02:52.992Z,11.40
2023-05-09T19:05:22.261Z,11.30
2023-05-09T19:07:51.870Z,11.20
2023-05-09T19:10:24.152Z,11.10
2023-05-09T19:12:54.030Z,11.00
2023-05-09T19:15:23.885Z,11.00
2023-05-09T19:17:58.550Z,11.00
2023-05-09T19:20:29.623Z,10.90
2023-05-09T19:22:59.382Z,10.90
2023-05-09T19:25:33.830Z,10.80
2023-05-09T19:28:03.475Z,10.70
2023-05-09T19:30:33.942Z,10.70
2023-05-09T19:33:03.557Z,10.60
2023-05-09T19:35:33.815Z,10.60
2023-05-09T19:38:05.697Z,10.50
2023-05-09T19:40:35.130Z,10.40
2023-05-09T19:43:05.248Z,10.40
2023-05-09T19:45:35.461Z,10.30
2023-05-09T19:48:05.925Z,10.30
2023-05-09T19:50:45.954Z,10.20
2023-05-09T19:53:15.741Z,10.20
2023-05-09T19:55:47.443Z,10.10
2023-05-09T19:58:17.797Z,10.00
2023-05-09T20:00:48.300Z,10.00
2023-05-09T20:03:17.585Z,10.00
2023-05-09T20:08:33.950Z,9.80
2023-05-09T20:11:03.293Z,9.80
2023-05-09T20:13:32.495Z,9.70
2023-05-09T20:16:03.190Z,9.60
2023-05-09T20:18:34.879Z,9.50
2023-05-09T20:21:07.296Z,9.40
2023-05-09T20:23:37.055Z,9.30
2023-05-09T20:26:06.565Z,9.30
2023-05-09T20:28:35.721Z,9.20
2023-05-09T20:31:04.829Z,9.10
2023-05-09T20:33:34.164Z,9.00
2023-05-09T20:36:05.096Z,8.90
2023-05-09T20:38:34.439Z,8.80
2023-05-09T20:41:04.050Z,8.80
2023-05-09T20:43:33.509Z,8.70
2023-05-09T20:46:02.735Z,8.70
2023-05-09T20:48:32.489Z,8.60
2023-05-09T20:51:01.575Z,8.60
2023-05-09T20:53:32.470Z,8.50
2023-05-09T20:56:02.132Z,8.40
2023-05-09T20:58:32.887Z,8.30
2023-05-09T21:01:02.317Z,8.20
2023-05-09T21:03:31.474Z,8.10
2023-05-09T21:06:00.754Z,8.00
2023-05-09T21:08:29.779Z,8.00
2023-05-09T21:10:58.880Z,8.00
2023-05-09T21:13:28.390Z,8.00
2023-05-09T21:15:57.645Z,7.90
2023-05-09T21:18:27.461Z,7.80
2023-05-09T21:20:56.519Z,7.70
2023-05-09T21:23:25.595Z,7.60
2023-05-09T21:25:54.611Z,7.60
2023-05-09T21:28:23.671Z,7.60
2023-05-09T21:30:53.867Z,7.70
2023-05-09T21:33:23.121Z,7.70
2023-05-09T21:35:52.073Z,7.80
2023-05-09T21:38:21.195Z,7.80
2023-05-09T21:40:51.462Z,7.80
2023-05-09T21:43:20.647Z,7.70
2023-05-09T21:45:49.647Z,7.70
2023-05-09T21:48:18.700Z,7.60
2023-05-09T21:50:47.945Z,7.60
2023-05-09T21:53:16.986Z,7.50
2023-05-09T21:55:46.294Z,7.50
2023-05-09T21:58:15.352Z,7.50
2023-05-09T22:00:44.460Z,7.50
2023-05-09T22:03:13.608Z,7.60
2023-05-09T22:05:43.177Z,7.60
2023-05-09T22:08:12.228Z,7.70
2023-05-09T22:10:41.310Z,7.70
2023-05-09T22:13:10.473Z,7.80
2023-05-09T22:15:39.594Z,7.80
2023-05-09T22:18:08.830Z,7.80
2023-05-09T22:20:37.854Z,7.80
2023-05-09T22:23:06.985Z,7.70
2023-05-09T22:25:36.061Z,7.70
2023-05-09T22:28:05.200Z,7.70
2023-05-09T22:30:34.916Z,7.70
2023-05-09T22:33:04.069Z,7.70
2023-05-09T22:35:33.144Z,7.70
2023-05-09T22:38:02.154Z,7.70
2023-05-09T22:40:31.195Z,7.80
2023-05-09T22:43:00.238Z,7.80
2023-05-09T22:45:29.485Z,7.80
2023-05-09T22:47:58.567Z,7.80
2023-05-09T22:50:27.801Z,7.80
2023-05-09T22:52:56.887Z,7.80
2023-05-09T22:55:26.020Z,7.80
2023-05-09T22:57:55.100Z,7.80
2023-05-09T23:00:24.166Z,7.90
2023-05-09T23:02:53.301Z,7.90
2023-05-09T23:05:23.488Z,7.80
2023-05-09T23:07:52.549Z,7.90
2023-05-09T23:10:21.652Z,7.80
2023-05-09T23:12:50.745Z,7.80
2023-05-09T23:15:20.008Z,7.80
2023-05-09T23:17:49.109Z,7.80
2023-05-09T23:20:18.557Z,7.70
2023-05-09T23:22:47.789Z,7.70
2023-05-09T23:25:16.851Z,7.60
2023-05-09T23:27:46.975Z,7.60
2023-05-09T23:30:16.473Z,7.60
2023-05-09T23:32:46.070Z,7.60
2023-05-09T23:35:15.516Z,7.60
2023-05-09T23:37:44.540Z,7.70
2023-05-09T23:40:14.236Z,7.80
2023-05-09T23:42:43.476Z,7.90
2023-05-09T23:45:12.903Z,7.90
2023-05-09T23:47:41.984Z,7.90
2023-05-09T23:50:12.168Z,8.00
2023-05-09T23:52:42.092Z,8.00
2023-05-09T23:55:11.592Z,7.90
2023-05-09T23:57:40.702Z,7.80
